Аэропорт: Ровно. Ровно

ICAO: UKLR

METAR:
Информация по данной станции не доступна
METAR:
2019-09-21 11:03:00
TAF UKLR 211103Z 2112/2121 25007G12MPS 5000 BR BKN010 BKN013CB TEMPO 2112/2121 29009G14MPS 2100 -SHRA BKN005 BKN013CB